sensor_id;sensor_type;location;lat;lon;timestamp;P1;durP1;ratioP1;P2;durP2;ratioP2
1735;SDS011;865;53.672;10.250;2024-03-17T00:01:13;1.03;;;1.03;;
1735;SDS011;865;53.672;10.250;2024-03-17T00:03:39;0.90;;;0.90;;
1735;SDS011;865;53.672;10.250;2024-03-17T00:06:05;1.03;;;1.03;;
1735;SDS011;865;53.672;10.250;2024-03-17T00:08:31;1.23;;;1.23;;
1735;SDS011;865;53.672;10.250;2024-03-17T00:10:56;0.50;;;0.50;;
1735;SDS011;865;53.672;10.250;2024-03-17T00:13:22;1.17;;;1.17;;
1735;SDS011;865;53.672;10.250;2024-03-17T00:15:49;1.73;;;1.73;;
1735;SDS011;865;53.672;10.250;2024-03-17T00:18:15;0.65;;;0.65;;
1735;SDS011;865;53.672;10.250;2024-03-17T00:20:41;0.80;;;0.80;;
1735;SDS011;865;53.672;10.250;2024-03-17T00:23:06;0.60;;;0.60;;
1735;SDS011;865;53.672;10.250;2024-03-17T00:25:34;0.52;;;0.52;;
1735;SDS011;865;53.672;10.250;2024-03-17T00:28:00;0.90;;;0.90;;
1735;SDS011;865;53.672;10.250;2024-03-17T00:30:26;0.63;;;0.63;;
1735;SDS011;865;53.672;10.250;2024-03-17T00:32:52;0.65;;;0.65;;
1735;SDS011;865;53.672;10.250;2024-03-17T00:35:18;0.60;;;0.60;;
1735;SDS011;865;53.672;10.250;2024-03-17T00:37:47;0.50;;;0.50;;
1735;SDS011;865;53.672;10.250;2024-03-17T00:40:13;0.43;;;0.43;;
1735;SDS011;865;53.672;10.250;2024-03-17T00:42:39;0.70;;;0.70;;
1735;SDS011;865;53.672;10.250;2024-03-17T00:45:05;1.20;;;1.20;;
1735;SDS011;865;53.672;10.250;2024-03-17T00:47:32;1.77;;;1.77;;
1735;SDS011;865;53.672;10.250;2024-03-17T00:49:58;0.82;;;0.82;;
1735;SDS011;865;53.672;10.250;2024-03-17T00:52:23;0.70;;;0.70;;
1735;SDS011;865;53.672;10.250;2024-03-17T00:54:49;0.90;;;0.90;;
1735;SDS011;865;53.672;10.250;2024-03-17T00:57:14;0.63;;;0.63;;
1735;SDS011;865;53.672;10.250;2024-03-17T00:59:43;1.38;;;1.38;;
1735;SDS011;865;53.672;10.250;2024-03-17T01:02:10;0.30;;;0.30;;
1735;SDS011;865;53.672;10.250;2024-03-17T01:04:38;0.88;;;0.88;;
1735;SDS011;865;53.672;10.250;2024-03-17T01:07:05;1.45;;;1.45;;
1735;SDS011;865;53.672;10.250;2024-03-17T01:09:31;1.90;;;1.90;;
1735;SDS011;865;53.672;10.250;2024-03-17T01:11:56;1.40;;;1.40;;
1735;SDS011;865;53.672;10.250;2024-03-17T01:14:22;2.13;;;2.13;;
1735;SDS011;865;53.672;10.250;2024-03-17T01:16:48;1.40;;;1.40;;
1735;SDS011;865;53.672;10.250;2024-03-17T01:19:16;2.10;;;2.10;;
1735;SDS011;865;53.672;10.250;2024-03-17T01:21:41;1.33;;;1.33;;
1735;SDS011;865;53.672;10.250;2024-03-17T01:24:07;2.13;;;2.13;;
1735;SDS011;865;53.672;10.250;2024-03-17T01:26:32;1.63;;;1.63;;
1735;SDS011;865;53.672;10.250;2024-03-17T01:28:58;1.33;;;1.33;;
1735;SDS011;865;53.672;10.250;2024-03-17T01:31:23;2.93;;;2.93;;
1735;SDS011;865;53.672;10.250;2024-03-17T01:33:50;1.02;;;1.02;;
1735;SDS011;865;53.672;10.250;2024-03-17T01:36:15;1.70;;;1.70;;
1735;SDS011;865;53.672;10.250;2024-03-17T01:38:41;2.10;;;2.10;;
1735;SDS011;865;53.672;10.250;2024-03-17T01:41:06;2.30;;;2.30;;
1735;SDS011;865;53.672;10.250;2024-03-17T01:43:32;2.20;;;2.20;;
1735;SDS011;865;53.672;10.250;2024-03-17T01:45:58;2.10;;;2.10;;
1735;SDS011;865;53.672;10.250;2024-03-17T01:48:26;2.65;;;2.65;;
1735;SDS011;865;53.672;10.250;2024-03-17T01:50:52;1.10;;;1.10;;
1735;SDS011;865;53.672;10.250;2024-03-17T01:53:19;1.75;;;1.75;;
1735;SDS011;865;53.672;10.250;2024-03-17T01:55:46;1.80;;;1.80;;
1735;SDS011;865;53.672;10.250;2024-03-17T01:58:12;2.47;;;2.47;;
1735;SDS011;865;53.672;10.250;2024-03-17T02:00:38;1.43;;;1.43;;
1735;SDS011;865;53.672;10.250;2024-03-17T02:03:05;2.28;;;2.28;;
1735;SDS011;865;53.672;10.250;2024-03-17T02:05:32;2.25;;;2.25;;
1735;SDS011;865;53.672;10.250;2024-03-17T02:07:59;2.90;;;2.90;;
1735;SDS011;865;53.672;10.250;2024-03-17T02:10:25;2.38;;;2.38;;
1735;SDS011;865;53.672;10.250;2024-03-17T02:12:51;2.57;;;2.57;;
1735;SDS011;865;53.672;10.250;2024-03-17T02:15:17;1.88;;;1.88;;
1735;SDS011;865;53.672;10.250;2024-03-17T02:17:43;1.50;;;1.50;;
1735;SDS011;865;53.672;10.250;2024-03-17T02:20:08;3.00;;;3.00;;
1735;SDS011;865;53.672;10.250;2024-03-17T02:22:39;2.15;;;2.15;;
1735;SDS011;865;53.672;10.250;2024-03-17T02:25:05;2.08;;;2.08;;
1735;SDS011;865;53.672;10.250;2024-03-17T02:27:37;1.67;;;1.67;;
1735;SDS011;865;53.672;10.250;2024-03-17T02:30:03;2.47;;;2.47;;
1735;SDS011;865;53.672;10.250;2024-03-17T02:32:35;1.17;;;1.17;;
1735;SDS011;865;53.672;10.250;2024-03-17T02:35:01;1.97;;;1.97;;
1735;SDS011;865;53.672;10.250;2024-03-17T02:37:27;3.10;;;3.08;;
1735;SDS011;865;53.672;10.250;2024-03-17T02:39:52;3.03;;;3.03;;
1735;SDS011;865;53.672;10.250;2024-03-17T02:42:18;2.37;;;2.37;;
1735;SDS011;865;53.672;10.250;2024-03-17T02:44:44;1.27;;;1.27;;
1735;SDS011;865;53.672;10.250;2024-03-17T02:47:10;2.13;;;2.13;;
1735;SDS011;865;53.672;10.250;2024-03-17T02:49:39;2.38;;;2.38;;
1735;SDS011;865;53.672;10.250;2024-03-17T02:52:09;1.98;;;1.98;;
1735;SDS011;865;53.672;10.250;2024-03-17T02:54:36;2.30;;;2.30;;
1735;SDS011;865;53.672;10.250;2024-03-17T02:57:02;1.15;;;1.15;;
1735;SDS011;865;53.672;10.250;2024-03-17T02:59:28;1.85;;;1.85;;
1735;SDS011;865;53.672;10.250;2024-03-17T03:01:54;0.77;;;0.77;;
1735;SDS011;865;53.672;10.250;2024-03-17T03:04:20;2.80;;;2.75;;
1735;SDS011;865;53.672;10.250;2024-03-17T03:06:46;2.77;;;2.77;;
1735;SDS011;865;53.672;10.250;2024-03-17T03:09:12;2.50;;;2.50;;
1735;SDS011;865;53.672;10.250;2024-03-17T03:11:46;2.80;;;2.80;;
1735;SDS011;865;53.672;10.250;2024-03-17T03:14:12;1.02;;;1.02;;
1735;SDS011;865;53.672;10.250;2024-03-17T03:16:38;2.25;;;2.25;;
1735;SDS011;865;53.672;10.250;2024-03-17T03:19:04;1.40;;;1.40;;
1735;SDS011;865;53.672;10.250;2024-03-17T03:21:30;1.05;;;1.05;;
1735;SDS011;865;53.672;10.250;2024-03-17T03:23:56;1.95;;;1.95;;
1735;SDS011;865;53.672;10.250;2024-03-17T03:26:22;2.20;;;2.20;;
1735;SDS011;865;53.672;10.250;2024-03-17T03:28:48;1.65;;;1.65;;
1735;SDS011;865;53.672;10.250;2024-03-17T03:31:15;1.70;;;1.70;;
1735;SDS011;865;53.672;10.250;2024-03-17T03:33:41;2.07;;;2.07;;
1735;SDS011;865;53.672;10.250;2024-03-17T03:36:08;1.85;;;1.85;;
1735;SDS011;865;53.672;10.250;2024-03-17T03:38:37;2.05;;;2.05;;
1735;SDS011;865;53.672;10.250;2024-03-17T03:41:10;2.75;;;2.75;;
1735;SDS011;865;53.672;10.250;2024-03-17T03:43:40;2.05;;;2.05;;
1735;SDS011;865;53.672;10.250;2024-03-17T03:46:07;2.72;;;2.72;;
1735;SDS011;865;53.672;10.250;2024-03-17T03:48:33;2.70;;;2.70;;
1735;SDS011;865;53.672;10.250;2024-03-17T03:51:03;2.40;;;2.40;;
1735;SDS011;865;53.672;10.250;2024-03-17T03:53:32;2.08;;;2.08;;
1735;SDS011;865;53.672;10.250;2024-03-17T03:56:04;1.27;;;1.27;;
1735;SDS011;865;53.672;10.250;2024-03-17T03:58:36;2.67;;;2.67;;
1735;SDS011;865;53.672;10.250;2024-03-17T04:01:03;1.50;;;1.50;;
1735;SDS011;865;53.672;10.250;2024-03-17T04:03:30;1.98;;;1.98;;
1735;SDS011;865;53.672;10.250;2024-03-17T04:06:03;1.47;;;1.47;;
1735;SDS011;865;53.672;10.250;2024-03-17T04:08:30;2.25;;;2.25;;
1735;SDS011;865;53.672;10.250;2024-03-17T04:10:57;1.88;;;1.88;;
1735;SDS011;865;53.672;10.250;2024-03-17T04:13:23;2.30;;;2.30;;
1735;SDS011;865;53.672;10.250;2024-03-17T04:15:48;2.83;;;2.83;;
1735;SDS011;865;53.672;10.250;2024-03-17T04:18:14;1.73;;;1.73;;
1735;SDS011;865;53.672;10.250;2024-03-17T04:20:42;1.42;;;1.42;;
1735;SDS011;865;53.672;10.250;2024-03-17T04:23:08;2.47;;;2.47;;
1735;SDS011;865;53.672;10.250;2024-03-17T04:25:34;3.47;;;3.37;;
1735;SDS011;865;53.672;10.250;2024-03-17T04:27:59;1.83;;;1.83;;
1735;SDS011;865;53.672;10.250;2024-03-17T04:30:25;2.87;;;2.87;;
1735;SDS011;865;53.672;10.250;2024-03-17T04:32:50;1.33;;;1.33;;
1735;SDS011;865;53.672;10.250;2024-03-17T04:35:17;2.55;;;2.55;;
1735;SDS011;865;53.672;10.250;2024-03-17T04:37:42;2.27;;;2.27;;
1735;SDS011;865;53.672;10.250;2024-03-17T04:40:08;2.13;;;2.13;;
1735;SDS011;865;53.672;10.250;2024-03-17T04:42:34;1.52;;;1.52;;
1735;SDS011;865;53.672;10.250;2024-03-17T04:45:00;1.90;;;1.90;;
1735;SDS011;865;53.672;10.250;2024-03-17T04:47:26;3.27;;;3.20;;
1735;SDS011;865;53.672;10.250;2024-03-17T04:49:51;2.80;;;2.77;;
1735;SDS011;865;53.672;10.250;2024-03-17T04:52:17;1.30;;;1.30;;
1735;SDS011;865;53.672;10.250;2024-03-17T04:54:42;1.23;;;1.23;;
1735;SDS011;865;53.672;10.250;2024-03-17T04:57:08;1.10;;;1.10;;
1735;SDS011;865;53.672;10.250;2024-03-17T04:59:34;2.20;;;2.20;;
1735;SDS011;865;53.672;10.250;2024-03-17T05:02:00;2.05;;;2.05;;
1735;SDS011;865;53.672;10.250;2024-03-17T05:04:25;2.33;;;2.33;;
1735;SDS011;865;53.672;10.250;2024-03-17T05:06:51;1.17;;;1.17;;
1735;SDS011;865;53.672;10.250;2024-03-17T05:09:17;2.20;;;2.20;;
1735;SDS011;865;53.672;10.250;2024-03-17T05:11:42;1.77;;;1.77;;
1735;SDS011;865;53.672;10.250;2024-03-17T05:14:08;3.10;;;3.10;;
1735;SDS011;865;53.672;10.250;2024-03-17T05:16:34;3.10;;;3.10;;
1735;SDS011;865;53.672;10.250;2024-03-17T05:18:59;1.40;;;1.40;;
1735;SDS011;865;53.672;10.250;2024-03-17T05:21:25;1.67;;;1.67;;
1735;SDS011;865;53.672;10.250;2024-03-17T05:23:51;1.92;;;1.92;;
1735;SDS011;865;53.672;10.250;2024-03-17T05:26:17;1.70;;;1.70;;
1735;SDS011;865;53.672;10.250;2024-03-17T05:28:43;2.53;;;2.53;;
1735;SDS011;865;53.672;10.250;2024-03-17T05:31:09;1.48;;;1.48;;
1735;SDS011;865;53.672;10.250;2024-03-17T05:33:35;1.10;;;1.10;;
1735;SDS011;865;53.672;10.250;2024-03-17T05:36:01;2.00;;;2.00;;
1735;SDS011;865;53.672;10.250;2024-03-17T05:38:29;1.80;;;1.80;;
1735;SDS011;865;53.672;10.250;2024-03-17T05:41:05;2.38;;;2.38;;
1735;SDS011;865;53.672;10.250;2024-03-17T05:43:33;2.97;;;2.97;;
1735;SDS011;865;53.672;10.250;2024-03-17T05:46:06;2.08;;;2.08;;
1735;SDS011;865;53.672;10.250;2024-03-17T05:48:37;2.22;;;2.22;;
1735;SDS011;865;53.672;10.250;2024-03-17T05:51:07;2.45;;;2.45;;
1735;SDS011;865;53.672;10.250;2024-03-17T05:53:36;0.93;;;0.93;;
1735;SDS011;865;53.672;10.250;2024-03-17T05:56:09;2.85;;;2.85;;
1735;SDS011;865;53.672;10.250;2024-03-17T05:58:36;1.40;;;1.40;;
1735;SDS011;865;53.672;10.250;2024-03-17T06:01:02;1.67;;;1.67;;
1735;SDS011;865;53.672;10.250;2024-03-17T06:03:28;1.95;;;1.95;;
1735;SDS011;865;53.672;10.250;2024-03-17T06:05:54;1.50;;;1.50;;
1735;SDS011;865;53.672;10.250;2024-03-17T06:08:19;2.50;;;2.50;;
1735;SDS011;865;53.672;10.250;2024-03-17T06:10:46;1.07;;;1.07;;
1735;SDS011;865;53.672;10.250;2024-03-17T06:13:13;0.35;;;0.35;;
1735;SDS011;865;53.672;10.250;2024-03-17T06:15:40;0.73;;;0.73;;
1735;SDS011;865;53.672;10.250;2024-03-17T06:18:06;1.67;;;1.67;;
1735;SDS011;865;53.672;10.250;2024-03-17T06:20:34;1.27;;;1.27;;
1735;SDS011;865;53.672;10.250;2024-03-17T06:23:00;1.00;;;1.00;;
1735;SDS011;865;53.672;10.250;2024-03-17T06:25:25;1.17;;;1.17;;
1735;SDS011;865;53.672;10.250;2024-03-17T06:27:51;0.70;;;0.70;;
1735;SDS011;865;53.672;10.250;2024-03-17T06:30:17;0.70;;;0.70;;
1735;SDS011;865;53.672;10.250;2024-03-17T06:32:43;0.37;;;0.37;;
1735;SDS011;865;53.672;10.250;2024-03-17T06:35:13;1.17;;;1.17;;
1735;SDS011;865;53.672;10.250;2024-03-17T06:37:43;0.68;;;0.68;;
1735;SDS011;865;53.672;10.250;2024-03-17T06:40:11;0.80;;;0.80;;
1735;SDS011;865;53.672;10.250;2024-03-17T06:42:38;0.25;;;0.25;;
1735;SDS011;865;53.672;10.250;2024-03-17T06:45:04;0.60;;;0.60;;
1735;SDS011;865;53.672;10.250;2024-03-17T06:47:30;0.40;;;0.40;;
1735;SDS011;865;53.672;10.250;2024-03-17T06:49:56;0.87;;;0.87;;
1735;SDS011;865;53.672;10.250;2024-03-17T06:52:21;0.90;;;0.90;;
1735;SDS011;865;53.672;10.250;2024-03-17T06:54:47;1.20;;;1.20;;
1735;SDS011;865;53.672;10.250;2024-03-17T06:57:15;0.60;;;0.60;;
1735;SDS011;865;53.672;10.250;2024-03-17T06:59:41;1.77;;;1.77;;
1735;SDS011;865;53.672;10.250;2024-03-17T07:02:06;1.13;;;1.13;;
1735;SDS011;865;53.672;10.250;2024-03-17T07:04:32;0.80;;;0.80;;
1735;SDS011;865;53.672;10.250;2024-03-17T07:07:00;0.70;;;0.70;;
1735;SDS011;865;53.672;10.250;2024-03-17T07:09:26;0.80;;;0.80;;
1735;SDS011;865;53.672;10.250;2024-03-17T07:11:51;0.30;;;0.30;;
1735;SDS011;865;53.672;10.250;2024-03-17T07:14:18;0.52;;;0.52;;
1735;SDS011;865;53.672;10.250;2024-03-17T07:16:44;0.77;;;0.77;;
1735;SDS011;865;53.672;10.250;2024-03-17T07:19:09;1.03;;;1.03;;
1735;SDS011;865;53.672;10.250;2024-03-17T07:21:35;1.50;;;1.50;;
1735;SDS011;865;53.672;10.250;2024-03-17T07:24:00;0.50;;;0.50;;
1735;SDS011;865;53.672;10.250;2024-03-17T07:26:30;1.55;;;1.55;;
1735;SDS011;865;53.672;10.250;2024-03-17T07:28:55;0.50;;;0.50;;
1735;SDS011;865;53.672;10.250;2024-03-17T07:31:21;0.20;;;0.20;;
1735;SDS011;865;53.672;10.250;2024-03-17T07:33:47;1.10;;;1.10;;
1735;SDS011;865;53.672;10.250;2024-03-17T07:36:13;1.38;;;1.38;;
1735;SDS011;865;53.672;10.250;2024-03-17T07:38:38;0.60;;;0.60;;
1735;SDS011;865;53.672;10.250;2024-03-17T07:41:05;0.50;;;0.50;;
1735;SDS011;865;53.672;10.250;2024-03-17T07:43:33;0.40;;;0.40;;
1735;SDS011;865;53.672;10.250;2024-03-17T07:46:00;1.05;;;1.05;;
1735;SDS011;865;53.672;10.250;2024-03-17T07:48:27;2.08;;;2.08;;
1735;SDS011;865;53.672;10.250;2024-03-17T07:50:57;1.95;;;1.95;;
1735;SDS011;865;53.672;10.250;2024-03-17T07:53:29;2.40;;;2.40;;
1735;SDS011;865;53.672;10.250;2024-03-17T07:58:27;1.48;;;1.48;;
1735;SDS011;865;53.672;10.250;2024-03-17T08:00:56;0.40;;;0.40;;
1735;SDS011;865;53.672;10.250;2024-03-17T08:03:25;0.60;;;0.60;;
1735;SDS011;865;53.672;10.250;2024-03-17T08:05:51;0.88;;;0.88;;
1735;SDS011;865;53.672;10.250;2024-03-17T08:08:17;0.70;;;0.70;;
1735;SDS011;865;53.672;10.250;2024-03-17T08:10:43;0.83;;;0.83;;
1735;SDS011;865;53.672;10.250;2024-03-17T08:13:08;0.87;;;0.87;;
1735;SDS011;865;53.672;10.250;2024-03-17T08:15:35;0.67;;;0.67;;
1735;SDS011;865;53.672;10.250;2024-03-17T08:18:00;1.40;;;1.40;;
1735;SDS011;865;53.672;10.250;2024-03-17T08:20:26;1.30;;;1.30;;
1735;SDS011;865;53.672;10.250;2024-03-17T08:22:51;0.50;;;0.50;;
1735;SDS011;865;53.672;10.250;2024-03-17T08:25:17;0.37;;;0.37;;
1735;SDS011;865;53.672;10.250;2024-03-17T08:27:43;0.53;;;0.53;;
1735;SDS011;865;53.672;10.250;2024-03-17T08:30:09;0.60;;;0.60;;
1735;SDS011;865;53.672;10.250;2024-03-17T08:32:38;0.80;;;0.80;;
1735;SDS011;865;53.672;10.250;2024-03-17T08:35:04;0.73;;;0.73;;
1735;SDS011;865;53.672;10.250;2024-03-17T08:37:31;1.35;;;1.35;;
1735;SDS011;865;53.672;10.250;2024-03-17T08:39:57;0.70;;;0.70;;
1735;SDS011;865;53.672;10.250;2024-03-17T08:42:22;0.60;;;0.60;;
1735;SDS011;865;53.672;10.250;2024-03-17T08:44:48;0.83;;;0.83;;
1735;SDS011;865;53.672;10.250;2024-03-17T08:47:13;0.30;;;0.30;;
1735;SDS011;865;53.672;10.250;2024-03-17T08:49:39;0.60;;;0.60;;
1735;SDS011;865;53.672;10.250;2024-03-17T08:52:05;0.87;;;0.87;;
1735;SDS011;865;53.672;10.250;2024-03-17T08:54:30;0.93;;;0.93;;
1735;SDS011;865;53.672;10.250;2024-03-17T08:56:56;0.53;;;0.53;;
1735;SDS011;865;53.672;10.250;2024-03-17T08:59:21;0.43;;;0.43;;
1735;SDS011;865;53.672;10.250;2024-03-17T09:01:47;0.50;;;0.50;;
1735;SDS011;865;53.672;10.250;2024-03-17T09:04:12;0.40;;;0.40;;
1735;SDS011;865;53.672;10.250;2024-03-17T09:06:38;1.00;;;1.00;;
1735;SDS011;865;53.672;10.250;2024-03-17T09:09:03;0.57;;;0.57;;
1735;SDS011;865;53.672;10.250;2024-03-17T09:11:29;1.00;;;1.00;;
1735;SDS011;865;53.672;10.250;2024-03-17T09:13:54;1.63;;;1.63;;
1735;SDS011;865;53.672;10.250;2024-03-17T09:16:20;0.90;;;0.90;;
1735;SDS011;865;53.672;10.250;2024-03-17T09:18:47;0.50;;;0.50;;
1735;SDS011;865;53.672;10.250;2024-03-17T09:21:14;1.10;;;1.10;;
1735;SDS011;865;53.672;10.250;2024-03-17T09:23:41;0.55;;;0.55;;
1735;SDS011;865;53.672;10.250;2024-03-17T09:26:08;0.80;;;0.80;;
1735;SDS011;865;53.672;10.250;2024-03-17T09:28:34;0.95;;;0.95;;
1735;SDS011;865;53.672;10.250;2024-03-17T09:31:01;0.90;;;0.90;;
1735;SDS011;865;53.672;10.250;2024-03-17T09:33:28;1.00;;;1.00;;
1735;SDS011;865;53.672;10.250;2024-03-17T09:38:23;2.97;;;2.97;;
1735;SDS011;865;53.672;10.250;2024-03-17T09:40:49;0.50;;;0.50;;
1735;SDS011;865;53.672;10.250;2024-03-17T09:43:18;0.50;;;0.50;;
1735;SDS011;865;53.672;10.250;2024-03-17T09:45:44;0.60;;;0.60;;
1735;SDS011;865;53.672;10.250;2024-03-17T09:48:11;1.00;;;1.00;;
1735;SDS011;865;53.672;10.250;2024-03-17T09:50:40;1.55;;;1.55;;
1735;SDS011;865;53.672;10.250;2024-03-17T09:53:06;0.43;;;0.43;;
1735;SDS011;865;53.672;10.250;2024-03-17T09:55:38;1.40;;;1.40;;
1735;SDS011;865;53.672;10.250;2024-03-17T09:58:04;0.70;;;0.70;;
1735;SDS011;865;53.672;10.250;2024-03-17T10:00:29;0.70;;;0.70;;
1735;SDS011;865;53.672;10.250;2024-03-17T10:02:55;0.33;;;0.33;;
1735;SDS011;865;53.672;10.250;2024-03-17T10:05:24;0.70;;;0.70;;
1735;SDS011;865;53.672;10.250;2024-03-17T10:07:50;0.40;;;0.40;;
1735;SDS011;865;53.672;10.250;2024-03-17T10:10:16;0.40;;;0.40;;
1735;SDS011;865;53.672;10.250;2024-03-17T10:12:43;0.40;;;0.40;;
1735;SDS011;865;53.672;10.250;2024-03-17T10:15:14;0.35;;;0.35;;
1735;SDS011;865;53.672;10.250;2024-03-17T10:17:39;0.80;;;0.80;;
1735;SDS011;865;53.672;10.250;2024-03-17T10:22:38;0.30;;;0.30;;
1735;SDS011;865;53.672;10.250;2024-03-17T10:25:04;0.50;;;0.50;;
1735;SDS011;865;53.672;10.250;2024-03-17T10:27:31;0.70;;;0.70;;
1735;SDS011;865;53.672;10.250;2024-03-17T10:29:57;0.70;;;0.70;;
1735;SDS011;865;53.672;10.250;2024-03-17T10:32:22;1.17;;;1.17;;
1735;SDS011;865;53.672;10.250;2024-03-17T10:34:50;0.50;;;0.50;;
1735;SDS011;865;53.672;10.250;2024-03-17T10:37:17;0.90;;;0.90;;
1735;SDS011;865;53.672;10.250;2024-03-17T10:39:52;1.08;;;1.08;;
1735;SDS011;865;53.672;10.250;2024-03-17T10:42:25;0.30;;;0.30;;
1735;SDS011;865;53.672;10.250;2024-03-17T10:44:53;1.55;;;1.55;;
1735;SDS011;865;53.672;10.250;2024-03-17T10:47:21;0.60;;;0.60;;
1735;SDS011;865;53.672;10.250;2024-03-17T10:49:52;1.85;;;1.85;;
1735;SDS011;865;53.672;10.250;2024-03-17T10:52:20;2.00;;;2.00;;
1735;SDS011;865;53.672;10.250;2024-03-17T10:54:47;0.88;;;0.88;;
1735;SDS011;865;53.672;10.250;2024-03-17T10:57:38;0.77;;;0.77;;
1735;SDS011;865;53.672;10.250;2024-03-17T11:00:15;0.95;;;0.95;;
1735;SDS011;865;53.672;10.250;2024-03-17T11:02:43;1.92;;;1.92;;
1735;SDS011;865;53.672;10.250;2024-03-17T11:05:11;0.43;;;0.43;;
1735;SDS011;865;53.672;10.250;2024-03-17T11:07:44;0.40;;;0.40;;
1735;SDS011;865;53.672;10.250;2024-03-17T11:10:19;0.40;;;0.40;;
1735;SDS011;865;53.672;10.250;2024-03-17T11:12:48;1.05;;;1.05;;
1735;SDS011;865;53.672;10.250;2024-03-17T11:17:51;1.40;;;1.40;;
1735;SDS011;865;53.672;10.250;2024-03-17T11:22:48;0.40;;;0.40;;
1735;SDS011;865;53.672;10.250;2024-03-17T11:27:52;0.60;;;0.60;;
1735;SDS011;865;53.672;10.250;2024-03-17T11:47:04;1.98;;;1.98;;
1735;SDS011;865;53.672;10.250;2024-03-17T11:51:59;0.85;;;0.85;;
1735;SDS011;865;53.672;10.250;2024-03-17T11:54:27;0.30;;;0.30;;
1735;SDS011;865;53.672;10.250;2024-03-17T11:56:55;0.57;;;0.57;;
1735;SDS011;865;53.672;10.250;2024-03-17T11:59:22;1.95;;;1.95;;
1735;SDS011;865;53.672;10.250;2024-03-17T12:01:48;0.30;;;0.30;;
1735;SDS011;865;53.672;10.250;2024-03-17T12:04:15;0.40;;;0.40;;
1735;SDS011;865;53.672;10.250;2024-03-17T12:06:45;0.55;;;0.55;;
1735;SDS011;865;53.672;10.250;2024-03-17T12:14:36;0.55;;;0.55;;
1735;SDS011;865;53.672;10.250;2024-03-17T12:17:03;0.88;;;0.88;;
1735;SDS011;865;53.672;10.250;2024-03-17T12:19:32;0.95;;;0.95;;
1735;SDS011;865;53.672;10.250;2024-03-17T12:21:58;0.75;;;0.75;;
1735;SDS011;865;53.672;10.250;2024-03-17T12:24:26;0.63;;;0.63;;
1735;SDS011;865;53.672;10.250;2024-03-17T12:26:53;0.25;;;0.25;;
1735;SDS011;865;53.672;10.250;2024-03-17T12:29:31;0.55;;;0.55;;
1735;SDS011;865;53.672;10.250;2024-03-17T12:32:04;0.30;;;0.30;;
1735;SDS011;865;53.672;10.250;2024-03-17T12:34:36;0.70;;;0.70;;
1735;SDS011;865;53.672;10.250;2024-03-17T12:37:02;0.25;;;0.25;;
1735;SDS011;865;53.672;10.250;2024-03-17T12:39:32;0.40;;;0.40;;
1735;SDS011;865;53.672;10.250;2024-03-17T12:44:28;0.63;;;0.63;;
1735;SDS011;865;53.672;10.250;2024-03-17T12:46:58;0.50;;;0.50;;
1735;SDS011;865;53.672;10.250;2024-03-17T12:49:31;0.52;;;0.52;;
1735;SDS011;865;53.672;10.250;2024-03-17T12:52:01;0.68;;;0.68;;
1735;SDS011;865;53.672;10.250;2024-03-17T12:54:27;0.35;;;0.35;;
1735;SDS011;865;53.672;10.250;2024-03-17T12:57:07;1.00;;;1.00;;
1735;SDS011;865;53.672;10.250;2024-03-17T12:59:52;1.20;;;1.20;;
1735;SDS011;865;53.672;10.250;2024-03-17T13:02:45;0.40;;;0.40;;
1735;SDS011;865;53.672;10.250;2024-03-17T13:05:18;0.40;;;0.40;;
1735;SDS011;865;53.672;10.250;2024-03-17T13:07:46;0.70;;;0.70;;
1735;SDS011;865;53.672;10.250;2024-03-17T13:10:19;0.30;;;0.30;;
1735;SDS011;865;53.672;10.250;2024-03-17T13:12:45;0.30;;;0.30;;
1735;SDS011;865;53.672;10.250;2024-03-17T13:15:13;0.73;;;0.73;;
1735;SDS011;865;53.672;10.250;2024-03-17T13:17:46;0.40;;;0.40;;
1735;SDS011;865;53.672;10.250;2024-03-17T13:20:12;0.63;;;0.63;;
1735;SDS011;865;53.672;10.250;2024-03-17T13:22:40;0.43;;;0.43;;
1735;SDS011;865;53.672;10.250;2024-03-17T13:27:43;0.30;;;0.30;;
1735;SDS011;865;53.672;10.250;2024-03-17T13:30:11;0.75;;;0.75;;
1735;SDS011;865;53.672;10.250;2024-03-17T13:32:37;0.50;;;0.50;;
1735;SDS011;865;53.672;10.250;2024-03-17T13:35:03;0.23;;;0.23;;
1735;SDS011;865;53.672;10.250;2024-03-17T13:37:29;0.95;;;0.95;;
1735;SDS011;865;53.672;10.250;2024-03-17T13:39:54;0.67;;;0.67;;
1735;SDS011;865;53.672;10.250;2024-03-17T13:42:20;0.90;;;0.90;;
1735;SDS011;865;53.672;10.250;2024-03-17T13:44:45;0.43;;;0.43;;
1735;SDS011;865;53.672;10.250;2024-03-17T13:47:11;0.73;;;0.73;;
1735;SDS011;865;53.672;10.250;2024-03-17T13:49:39;0.40;;;0.40;;
1735;SDS011;865;53.672;10.250;2024-03-17T13:52:05;0.60;;;0.60;;
1735;SDS011;865;53.672;10.250;2024-03-17T13:54:30;0.30;;;0.30;;
1735;SDS011;865;53.672;10.250;2024-03-17T13:56:57;0.63;;;0.63;;
1735;SDS011;865;53.672;10.250;2024-03-17T13:59:23;0.30;;;0.30;;
1735;SDS011;865;53.672;10.250;2024-03-17T14:01:50;0.45;;;0.45;;
1735;SDS011;865;53.672;10.250;2024-03-17T14:04:16;0.27;;;0.27;;
1735;SDS011;865;53.672;10.250;2024-03-17T14:06:44;0.50;;;0.50;;
1735;SDS011;865;53.672;10.250;2024-03-17T14:09:10;0.63;;;0.63;;
1735;SDS011;865;53.672;10.250;2024-03-17T14:11:37;0.45;;;0.45;;
1735;SDS011;865;53.672;10.250;2024-03-17T14:14:04;0.60;;;0.60;;
1735;SDS011;865;53.672;10.250;2024-03-17T14:16:30;1.02;;;1.02;;
1735;SDS011;865;53.672;10.250;2024-03-17T14:18:59;1.00;;;1.00;;
1735;SDS011;865;53.672;10.250;2024-03-17T14:21:26;1.00;;;1.00;;
1735;SDS011;865;53.672;10.250;2024-03-17T14:23:55;0.52;;;0.52;;
1735;SDS011;865;53.672;10.250;2024-03-17T14:26:21;0.30;;;0.30;;
1735;SDS011;865;53.672;10.250;2024-03-17T14:28:50;0.63;;;0.63;;
1735;SDS011;865;53.672;10.250;2024-03-17T14:31:17;0.70;;;0.70;;
1735;SDS011;865;53.672;10.250;2024-03-17T14:33:43;0.20;;;0.20;;
1735;SDS011;865;53.672;10.250;2024-03-17T14:36:09;0.30;;;0.30;;
1735;SDS011;865;53.672;10.250;2024-03-17T14:38:35;0.60;;;0.60;;
1735;SDS011;865;53.672;10.250;2024-03-17T14:41:01;0.63;;;0.63;;
1735;SDS011;865;53.672;10.250;2024-03-17T14:43:27;0.30;;;0.30;;
1735;SDS011;865;53.672;10.250;2024-03-17T14:45:52;0.77;;;0.77;;
1735;SDS011;865;53.672;10.250;2024-03-17T14:48:18;0.47;;;0.47;;
1735;SDS011;865;53.672;10.250;2024-03-17T14:50:44;0.60;;;0.60;;
1735;SDS011;865;53.672;10.250;2024-03-17T14:53:09;0.30;;;0.30;;
1735;SDS011;865;53.672;10.250;2024-03-17T14:55:35;0.40;;;0.40;;
1735;SDS011;865;53.672;10.250;2024-03-17T14:58:00;0.30;;;0.30;;
1735;SDS011;865;53.672;10.250;2024-03-17T15:00:27;0.70;;;0.70;;
1735;SDS011;865;53.672;10.250;2024-03-17T15:02:57;0.35;;;0.35;;
1735;SDS011;865;53.672;10.250;2024-03-17T15:05:22;0.60;;;0.60;;
1735;SDS011;865;53.672;10.250;2024-03-17T15:07:49;0.30;;;0.30;;
1735;SDS011;865;53.672;10.250;2024-03-17T15:10:15;0.20;;;0.20;;
1735;SDS011;865;53.672;10.250;2024-03-17T15:12:45;0.40;;;0.40;;
1735;SDS011;865;53.672;10.250;2024-03-17T15:15:14;0.20;;;0.20;;
1735;SDS011;865;53.672;10.250;2024-03-17T15:17:39;0.27;;;0.27;;
1735;SDS011;865;53.672;10.250;2024-03-17T15:20:06;0.28;;;0.28;;
1735;SDS011;865;53.672;10.250;2024-03-17T15:22:45;0.17;;;0.17;;
1735;SDS011;865;53.672;10.250;2024-03-17T15:25:12;0.93;;;0.93;;
1735;SDS011;865;53.672;10.250;2024-03-17T15:27:39;0.32;;;0.32;;
1735;SDS011;865;53.672;10.250;2024-03-17T15:30:05;0.28;;;0.28;;
1735;SDS011;865;53.672;10.250;2024-03-17T15:32:32;0.30;;;0.30;;
1735;SDS011;865;53.672;10.250;2024-03-17T15:34:57;0.40;;;0.40;;
1735;SDS011;865;53.672;10.250;2024-03-17T15:37:24;0.30;;;0.30;;
1735;SDS011;865;53.672;10.250;2024-03-17T15:39:50;0.50;;;0.50;;
1735;SDS011;865;53.672;10.250;2024-03-17T15:42:15;0.40;;;0.40;;
1735;SDS011;865;53.672;10.250;2024-03-17T15:44:42;0.50;;;0.50;;
1735;SDS011;865;53.672;10.250;2024-03-17T15:47:07;0.33;;;0.33;;
1735;SDS011;865;53.672;10.250;2024-03-17T15:49:33;0.43;;;0.43;;
1735;SDS011;865;53.672;10.250;2024-03-17T15:51:59;0.30;;;0.30;;
1735;SDS011;865;53.672;10.250;2024-03-17T15:54:24;0.53;;;0.53;;
1735;SDS011;865;53.672;10.250;2024-03-17T15:56:50;0.40;;;0.40;;
1735;SDS011;865;53.672;10.250;2024-03-17T15:59:15;0.97;;;0.97;;